Time;durP1;ratioP1;P1;durP2;ratioP2;P2;SDS_P1;SDS_P2;PMS_P1;PMS_P2;Temp;Humidity;BMP_temperature;BMP_pressure;BME280_temperature;BME280_humidity;BME280_pressure;Samples;Min_cycle;Max_cycle;Signal;HPM_P1;HPM_P2
2022/09/21 07:33:58;;;;;;;8.32;3.80;;;;;;;11.63;63.43;97383.84;2115993;27;20554;-66
2022/09/21 07:35:03;;;;;;;8.18;3.83;;;;;;;11.71;65.17;97426.28;2085709;28;20215;-66
2022/09/21 07:40:16;;;;;;;13.27;3.90;;;;;;;13.60;60.90;97416.97;2106666;27;20599;-66
2022/09/21 07:41:21;;;;;;;17.80;4.90;;;;;;;13.06;61.68;97414.03;2108426;28;20204;-64
2022/09/21 07:45:42;;;;;;;7.47;3.80;;;;;;;13.98;60.52;97418.75;2100755;27;20566;-66
2022/09/21 07:46:48;;;;;;;7.97;4.53;;;;;;;14.21;59.51;97401.97;2099036;28;20198;-66
2022/09/21 07:47:49;;;;;;;17.95;4.57;;;;;;;14.87;58.27;97424.22;2095715;28;20206;-64
2022/09/21 07:51:43;;;;;;;12.03;4.30;;;;;;;16.36;54.40;97422.59;2062231;27;1259699;-65
2022/09/21 07:52:49;;;;;;;11.15;4.32;;;;;;;16.44;53.88;97411.63;2109872;28;20899;-64
2022/09/21 07:53:58;;;;;;;11.63;4.35;;;;;;;16.47;53.57;97424.66;2107659;28;20231;-65
2022/09/21 07:54:59;;;;;;;11.00;4.15;;;;;;;16.66;53.63;97421.81;2090289;28;20376;-65
2022/09/21 07:56:06;;;;;;;7.35;3.50;;;;;;;16.39;53.53;97411.91;2097056;28;20289;-65
2022/09/21 07:59:23;;;;;;;10.85;4.10;;;;;;;15.24;58.50;97414.47;2083909;28;20563;-65
2022/09/21 08:00:27;;;;;;;15.98;4.00;;;;;;;16.23;54.61;97417.16;2079778;28;20224;-65
2022/09/21 08:01:29;;;;;;;8.57;3.90;;;;;;;17.05;53.69;97415.22;2078732;28;20224;-66
2022/09/21 08:02:31;;;;;;;11.05;3.70;;;;;;;17.34;52.69;97412.59;2080511;28;20292;-66
2022/09/21 08:03:33;;;;;;;8.75;3.22;;;;;;;16.71;52.73;97427.69;2079167;28;20224;-67
2022/09/21 08:04:34;;;;;;;10.43;3.75;;;;;;;15.53;56.42;97427.91;2070903;28;20288;-66
2022/09/21 08:05:39;;;;;;;7.95;2.85;;;;;;;16.10;54.54;97413.50;2086895;28;20929;-66
2022/09/21 08:06:41;;;;;;;7.45;2.97;;;;;;;16.58;53.09;97421.38;2084172;28;20279;-65
2022/09/21 08:07:42;;;;;;;8.93;3.13;;;;;;;16.58;53.57;97422.25;2078980;28;20193;-66
2022/09/21 08:08:47;;;;;;;7.18;2.53;;;;;;;17.27;52.10;97414.78;2079416;28;20851;-66
2022/09/21 08:09:49;;;;;;;12.40;3.00;;;;;;;17.91;50.64;97421.50;2067933;28;20767;-66
2022/09/21 08:10:53;;;;;;;5.80;2.30;;;;;;;18.53;49.93;97417.66;2079577;28;20248;-68
2022/09/21 08:11:55;;;;;;;4.38;2.05;;;;;;;18.81;48.15;97421.97;2081757;28;20287;-68
2022/09/21 08:12:57;;;;;;;5.03;2.88;;;;;;;18.15;49.37;97423.59;2080185;28;20284;-68
2022/09/21 08:14:02;;;;;;;9.10;3.10;;;;;;;18.64;49.63;97427.53;2080088;28;20297;-68
2022/09/21 08:21:50;;;;;;;6.13;2.10;;;;;;;18.89;48.96;97417.06;2081652;28;20268;-68
2022/09/21 08:22:58;;;;;;;10.48;2.33;;;;;;;19.34;47.15;97421.19;2078044;28;20204;-68
2022/09/21 08:24:00;;;;;;;7.10;2.10;;;;;;;19.44;46.72;97400.19;2078279;28;20251;-69
2022/09/21 08:25:04;;;;;;;7.30;2.30;;;;;;;19.64;45.77;97431.47;2074238;28;20315;-69
2022/09/21 08:26:06;;;;;;;4.82;1.70;;;;;;;18.81;47.95;97419.34;2086843;28;20342;-68
2022/09/21 08:27:08;;;;;;;6.25;1.90;;;;;;;18.79;48.47;97420.38;2080498;28;20201;-69
2022/09/21 08:28:10;;;;;;;4.15;1.80;;;;;;;19.24;48.17;97426.25;2079306;28;20682;-68
2022/09/21 08:29:13;;;;;;;6.93;2.33;;;;;;;18.54;46.90;97417.56;2079542;28;20300;-69
2022/09/21 08:30:14;;;;;;;19.55;2.30;;;;;;;18.24;49.73;97408.00;2077714;28;20311;-69
2022/09/21 08:31:18;;;;;;;10.82;2.40;;;;;;;18.34;48.08;97423.28;2080224;28;20208;-69
2022/09/21 08:32:19;;;;;;;11.65;2.17;;;;;;;19.20;47.42;97417.66;2078391;28;20783;-68
2022/09/21 08:33:42;;;;;;;6.63;2.08;;;;;;;19.71;47.53;97422.13;2078706;28;20208;-68
2022/09/21 08:34:43;;;;;;;5.88;1.80;;;;;;;19.45;46.18;97421.28;2072079;28;20228;-69
2022/09/21 08:35:52;;;;;;;7.00;2.53;;;;;;;19.73;46.91;97414.06;2086562;28;20212;-68
2022/09/21 08:36:54;;;;;;;4.28;2.00;;;;;;;19.90;47.10;97432.31;2082474;28;20280;-69
2022/09/21 08:37:56;;;;;;;4.88;1.88;;;;;;;20.42;46.12;97411.00;2078154;28;20228;-68
2022/09/21 08:38:57;;;;;;;3.97;1.40;;;;;;;20.17;45.42;97428.66;2078071;28;20293;-68
2022/09/21 08:40:01;;;;;;;6.03;2.15;;;;;;;19.93;46.14;97425.97;2073948;28;20228;-68
2022/09/21 08:41:21;;;;;;;8.18;1.77;;;;;;;20.19;45.91;97431.25;2086152;28;20236;-68
2022/09/21 08:42:51;;;;;;;7.60;1.92;;;;;;;19.72;46.54;97423.84;2078807;28;20225;-68
2022/09/21 08:44:02;;;;;;;8.65;1.80;;;;;;;18.03;48.38;97419.91;2077481;28;20284;-68
2022/09/21 08:51:59;;;;;;;10.38;1.90;;;;;;;16.68;50.01;97388.28;2082545;28;20206;-67
2022/09/21 08:53:15;;;;;;;6.88;2.00;;;;;;;15.39;54.61;97428.63;2078187;28;20229;-66
2022/09/21 08:54:55;;;;;;;9.68;2.40;;;;;;;16.52;54.73;97429.63;2078985;28;20288;-67
2022/09/21 08:55:57;;;;;;;10.15;2.90;;;;;;;17.50;53.96;97380.03;2076903;28;20248;-71
2022/09/21 08:56:58;;;;;;;40.67;14.77;;;;;;;18.24;51.97;97415.91;2079344;28;20196;-70
2022/09/21 08:58:21;;;;;;;8.65;4.13;;;;;;;18.11;51.54;97407.91;2078533;28;20292;-71
2022/09/21 08:59:26;;;;;;;4.60;1.73;;;;;;;18.23;48.65;97427.47;2078206;28;20209;-69
2022/09/21 09:00:36;;;;;;;8.98;2.15;;;;;;;17.18;53.03;97404.78;2077971;28;20229;-69
2022/09/21 09:01:46;;;;;;;37.15;20.42;;;;;;;18.00;51.62;97420.13;2085990;28;20855;-68
2022/09/21 09:03:00;;;;;;;12.20;4.68;;;;;;;17.50;51.13;97412.53;2085237;28;20200;-68
2022/09/21 09:04:14;;;;;;;27.25;14.80;;;;;;;18.19;51.68;97425.09;2073306;28;20197;-68
2022/09/21 09:05:44;;;;;;;11.45;7.00;;;;;;;17.19;51.04;97421.44;2073119;28;20319;-69
2022/09/21 09:07:20;;;;;;;4.45;1.38;;;;;;;17.95;51.33;97423.91;2081464;28;20375;-69
2022/09/21 09:15:30;;;;;;;8.63;2.17;;;;;;;15.34;52.58;97381.47;2074325;28;20913;-69
2022/09/21 09:16:48;;;;;;;8.30;2.92;;;;;;;15.31;54.49;97420.25;2072465;28;20248;-67
2022/09/21 09:18:08;;;;;;;20.92;2.20;;;;;;;16.64;52.29;97419.25;2072887;28;20216;-68
2022/09/21 09:19:22;;;;;;;11.27;2.20;;;;;;;17.29;52.61;97420.81;2077768;28;20263;-67
2022/09/21 09:20:31;;;;;;;10.55;1.90;;;;;;;17.65;49.96;97412.53;2071757;28;20303;-67
2022/09/21 09:21:38;;;;;;;5.40;1.55;;;;;;;18.79;49.48;97412.44;2065469;28;20233;-67
2022/09/21 09:22:44;;;;;;;5.60;1.40;;;;;;;17.97;50.63;97417.66;2073015;28;20589;-67
2022/09/21 09:23:52;;;;;;;6.43;1.50;;;;;;;18.00;48.35;97405.09;2073979;28;20225;-67
2022/09/21 09:24:59;;;;;;;11.60;1.70;;;;;;;18.31;48.07;97418.16;2067669;28;20225;-68
2022/09/21 09:26:18;;;;;;;4.57;1.40;;;;;;;19.54;47.92;97417.16;2080336;28;20240;-68
2022/09/21 09:27:38;;;;;;;7.60;1.95;;;;;;;20.62;45.06;97414.00;2072663;28;20236;-67
2022/09/21 09:28:57;;;;;;;3.38;1.42;;;;;;;19.95;43.06;97415.25;2071704;28;20193;-68
2022/09/21 09:30:22;;;;;;;4.55;1.88;;;;;;;18.91;46.27;97407.22;2072050;28;20680;-67
2022/09/21 09:31:28;;;;;;;3.80;1.58;;;;;;;19.03;46.25;97420.59;2072143;28;20681;-68
2022/09/21 09:32:40;;;;;;;4.30;2.00;;;;;;;17.93;49.70;97411.72;2073836;28;20232;-67
2022/09/21 09:33:44;;;;;;;4.53;1.65;;;;;;;17.32;48.57;97413.66;2071880;28;20221;-67
2022/09/21 09:35:04;;;;;;;8.57;1.83;;;;;;;18.99;48.75;97414.66;2053666;28;20622;-67
2022/09/21 09:36:06;;;;;;;8.15;2.85;;;;;;;20.66;45.78;97399.56;2071970;28;20735;-67
2022/09/21 09:37:13;;;;;;;4.53;1.67;;;;;;;21.27;43.19;97410.06;2076552;28;20280;-67
2022/09/21 09:38:33;;;;;;;6.68;1.60;;;;;;;20.78;41.92;97408.44;2073168;28;20229;-66
2022/09/21 09:39:34;;;;;;;13.32;2.40;;;;;;;16.77;49.31;97406.22;2063079;28;20209;-73
2022/09/21 09:41:00;;;;;;;11.52;2.15;;;;;;;17.36;50.76;97410.72;2081130;28;20280;-70
2022/09/21 09:42:21;;;;;;;10.15;2.35;;;;;;;20.29;46.09;97413.72;2074978;28;20256;-65
2022/09/21 09:43:34;;;;;;;7.47;2.25;;;;;;;20.95;44.53;97399.22;2072495;28;20288;-65
2022/09/21 09:44:41;;;;;;;7.70;1.85;;;;;;;21.02;45.22;97411.91;2074077;28;20284;-65
2022/09/21 09:46:01;;;;;;;5.75;1.60;;;;;;;18.35;45.84;97409.97;2075262;28;20244;-67
2022/09/21 09:47:27;;;;;;;9.57;2.10;;;;;;;19.27;46.68;97417.25;2072608;28;20225;-66
2022/09/21 09:49:04;;;;;;;10.57;1.65;;;;;;;21.14;44.13;97414.59;2072346;28;20699;-66
2022/09/21 09:50:09;;;;;;;14.10;2.47;;;;;;;21.49;44.36;97413.72;2071094;28;20270;-66
2022/09/21 09:51:11;;;;;;;5.03;1.80;;;;;;;22.57;40.67;97410.59;2082512;28;20880;-66
2022/09/21 09:52:15;;;;;;;5.72;1.40;;;;;;;23.38;39.84;97410.16;2075747;28;20200;-66
2022/09/21 09:53:19;;;;;;;7.60;1.77;;;;;;;23.90;39.16;97410.16;2075129;28;20289;-67
2022/09/21 09:54:25;;;;;;;12.50;2.40;;;;;;;21.32;39.90;97391.13;2062158;28;20233;-68
2022/09/21 09:55:36;;;;;;;8.20;2.40;;;;;;;21.65;41.33;97403.63;2079971;28;20208;-67
2022/09/21 09:56:38;;;;;;;7.15;1.95;;;;;;;19.90;42.54;97405.81;2076463;28;20284;-67
2022/09/21 09:57:39;;;;;;;8.10;1.90;;;;;;;20.76;43.81;97405.91;2072978;28;20220;-67
2022/09/21 09:58:51;;;;;;;6.38;1.70;;;;;;;22.75;41.39;97407.41;2072812;28;20229;-67
2022/09/21 09:59:58;;;;;;;9.13;1.30;;;;;;;22.64;41.22;97400.31;2072455;28;20253;-67
2022/09/21 10:00:59;;;;;;;3.75;1.30;;;;;;;22.71;40.37;97390.00;2073199;28;20236;-67
2022/09/21 10:02:17;;;;;;;5.22;1.35;;;;;;;23.31;37.83;97375.19;2071814;28;20206;-67
2022/09/21 10:03:22;;;;;;;3.42;1.30;;;;;;;20.98;41.10;97391.88;2072844;28;20225;-68
2022/09/21 10:04:24;;;;;;;6.10;1.15;;;;;;;22.39;40.15;97398.81;2061923;28;20649;-68
2022/09/21 10:05:34;;;;;;;7.32;1.65;;;;;;;21.25;39.13;97396.06;2080956;28;20248;-69
2022/09/21 10:06:36;;;;;;;5.72;1.60;;;;;;;21.42;41.95;97388.59;2077918;28;20276;-69
2022/09/21 10:07:45;;;;;;;11.93;1.48;;;;;;;20.41;40.41;97395.22;2072791;28;20244;-69
2022/09/21 10:08:46;;;;;;;5.30;1.70;;;;;;;19.04;43.35;97390.53;2073165;28;20194;-68
2022/09/21 10:09:51;;;;;;;5.45;1.85;;;;;;;17.93;45.70;97393.22;2067215;28;20708;-69
2022/09/21 10:10:53;;;;;;;5.70;1.50;;;;;;;18.52;46.74;97394.81;2080755;28;20248;-70
2022/09/21 10:12:22;;;;;;;6.93;1.67;;;;;;;18.43;45.23;97394.44;2075660;28;20317;-70
2022/09/21 10:13:23;;;;;;;3.70;1.38;;;;;;;18.94;43.95;97398.22;2072067;28;20284;-69
2022/09/21 10:21:13;;;;;;;9.88;1.52;;;;;;;17.10;45.26;97384.13;2071291;28;20245;-72
2022/09/21 10:22:18;;;;;;;4.18;1.88;;;;;;;17.71;44.88;97386.63;2072183;28;20243;-73
2022/09/21 10:23:19;;;;;;;4.55;1.15;;;;;;;18.57;43.35;97351.22;2072725;28;20249;-72
2022/09/21 10:24:24;;;;;;;5.80;1.15;;;;;;;18.74;44.29;97383.66;2064004;28;20643;-71
2022/09/21 10:25:25;;;;;;;8.18;1.40;;;;;;;18.73;43.11;97372.22;2080119;28;20285;-70
2022/09/21 10:26:55;;;;;;;2.78;0.80;;;;;;;17.42;44.37;97380.47;2080368;28;20229;-73
2022/09/21 10:28:02;;;;;;;4.35;1.52;;;;;;;17.75;45.18;97377.56;2070929;28;20239;-72
2022/09/21 10:29:20;;;;;;;4.22;0.90;;;;;;;19.11;44.35;97383.03;2072988;28;20676;-73
2022/09/21 10:30:37;;;;;;;3.42;1.15;;;;;;;20.38;44.13;97375.91;2073913;28;20779;-73
2022/09/21 10:31:54;;;;;;;6.28;1.45;;;;;;;21.38;40.41;97372.03;2072436;28;20234;-74
2022/09/21 10:38:03;;;;;;;6.55;2.10;;;;;;;22.55;38.38;97377.09;2070451;28;20197;-76
2022/09/21 10:39:29;;;;;;;11.40;1.52;;;;;;;23.15;38.05;97386.31;2073103;28;20221;-76
2022/09/21 10:40:36;;;;;;;5.03;1.52;;;;;;;23.22;38.92;97373.31;2071531;28;20241;-76
2022/09/21 10:41:37;;;;;;;3.63;1.50;;;;;;;23.81;37.65;97366.47;2074111;28;20205;-76
2022/09/21 10:42:41;;;;;;;4.50;1.10;;;;;;;25.03;36.79;97372.63;2074240;28;20233;-77
2022/09/21 10:43:43;;;;;;;2.80;1.10;;;;;;;25.69;35.49;97344.22;2072176;28;20206;-76
2022/09/21 10:44:45;;;;;;;4.30;1.70;;;;;;;26.03;35.01;97373.91;2072819;28;20248;-75
2022/09/21 10:46:05;;;;;;;3.20;1.20;;;;;;;25.10;35.90;97368.38;2073330;28;20289;-75
2022/09/21 10:47:16;;;;;;;7.70;1.42;;;;;;;24.93;34.78;97370.78;2073675;28;20549;-75
2022/09/21 10:48:21;;;;;;;3.40;1.20;;;;;;;24.33;36.02;97370.88;2073829;28;20209;-77
2022/09/21 10:49:26;;;;;;;8.75;1.40;;;;;;;24.10;37.08;97371.09;2063302;28;20707;-75
2022/09/21 10:50:37;;;;;;;6.20;1.20;;;;;;;24.28;36.96;97373.94;2081123;28;20224;-76
2022/09/21 10:51:38;;;;;;;4.05;1.10;;;;;;;24.92;35.46;97369.13;2078444;28;20239;-74
2022/09/21 10:52:42;;;;;;;3.85;1.30;;;;;;;25.23;34.78;97368.09;2073244;28;20289;-70
2022/09/21 10:53:48;;;;;;;6.68;1.10;;;;;;;24.94;35.28;97367.13;2072454;28;20778;-71
2022/09/21 10:54:55;;;;;;;4.65;1.33;;;;;;;25.36;34.77;97357.16;2066352;28;20232;-71
2022/09/21 11:01:11;;;;;;;2.35;1.00;;;;;;;24.49;35.45;97370.31;2071747;28;20222;-71
2022/09/21 11:02:35;;;;;;;3.72;1.20;;;;;;;22.32;36.61;97362.03;2072205;28;20208;-71
2022/09/21 11:03:56;;;;;;;2.63;0.90;;;;;;;24.10;35.88;97363.09;2072339;28;20213;-71
2022/09/21 11:05:13;;;;;;;4.00;0.90;;;;;;;25.53;34.05;97356.38;2066928;28;20224;-71
2022/09/21 11:06:21;;;;;;;4.47;1.02;;;;;;;26.28;33.63;97357.34;2078923;28;20284;-70
2022/09/21 11:07:38;;;;;;;2.80;1.00;;;;;;;24.86;34.86;97367.03;2079196;28;20284;-71
2022/09/21 11:09:05;;;;;;;7.35;1.40;;;;;;;24.65;34.88;97364.47;2080353;28;20335;-71
2022/09/21 11:10:17;;;;;;;4.60;1.00;;;;;;;25.37;33.71;97370.34;2068406;28;20238;-71
2022/09/21 11:11:42;;;;;;;6.47;1.10;;;;;;;24.88;34.86;97364.19;2079647;28;20217;-71
2022/09/21 11:19:42;;;;;;;8.38;2.00;;;;;;;25.84;33.37;97366.81;2064774;28;20205;-70
2022/09/21 11:20:53;;;;;;;6.32;2.10;;;;;;;26.16;31.53;97370.94;2069855;28;20399;-70
2022/09/21 11:22:32;;;;;;;3.88;1.20;;;;;;;25.83;32.79;97365.13;2070387;28;20281;-70
2022/09/21 11:23:54;;;;;;;4.63;1.05;;;;;;;24.70;34.64;97366.75;2072189;28;20236;-71
2022/09/21 11:31:35;;;;;;;4.22;1.38;;;;;;;24.81;34.25;97357.72;2071681;28;20217;-70
2022/09/21 11:33:10;;;;;;;2.42;1.08;;;;;;;23.89;35.72;97354.28;2070964;28;20304;-70
2022/09/21 11:34:46;;;;;;;6.38;1.73;;;;;;;20.67;39.16;97357.00;2071585;28;20757;-68
2022/09/21 11:36:21;;;;;;;5.53;1.23;;;;;;;22.90;37.65;97355.53;2071795;28;20669;-69
2022/09/21 11:37:35;;;;;;;3.95;1.38;;;;;;;21.59;37.05;97350.97;2072085;28;20213;-70
2022/09/21 11:38:54;;;;;;;4.25;1.42;;;;;;;23.03;36.91;97349.19;2071979;28;20631;-69
2022/09/21 11:40:20;;;;;;;11.75;1.67;;;;;;;23.09;35.80;97338.00;2067250;28;20233;-70
2022/09/21 11:41:32;;;;;;;7.72;1.42;;;;;;;23.98;35.24;97344.66;2078498;28;20197;-69
2022/09/21 11:43:11;;;;;;;4.15;1.10;;;;;;;22.44;38.30;97343.41;2072054;28;20541;-69
2022/09/21 11:44:15;;;;;;;2.45;1.00;;;;;;;24.32;36.12;97334.50;2073403;28;20228;-70
2022/09/21 11:45:25;;;;;;;3.60;1.30;;;;;;;25.05;34.54;97335.91;2069545;28;20224;-69
2022/09/21 11:46:45;;;;;;;6.70;1.52;;;;;;;23.85;35.30;97331.56;2077946;28;20240;-69
2022/09/21 11:47:55;;;;;;;5.40;1.60;;;;;;;23.71;36.67;97332.75;2071872;28;20236;-69
2022/09/21 12:13:53;;;;;;;4.22;1.38;;;;;;;24.52;36.20;97289.13;2072766;28;20280;-69
2022/09/21 12:15:07;;;;;;;7.00;1.30;;;;;;;25.64;34.87;97307.22;2067777;28;20250;-68
2022/09/21 12:16:20;;;;;;;4.35;1.20;;;;;;;25.04;36.17;97297.69;2082698;28;20200;-68
2022/09/21 12:17:48;;;;;;;3.10;1.15;;;;;;;24.98;36.23;97308.09;2071071;28;20653;-68
2022/09/21 12:19:03;;;;;;;1.88;0.90;;;;;;;24.28;36.65;97309.91;2072954;28;20313;-69
2022/09/21 12:20:15;;;;;;;4.47;1.30;;;;;;;24.12;37.28;97314.94;2062049;28;20697;-69
2022/09/21 12:21:21;;;;;;;2.65;1.23;;;;;;;22.62;38.55;97312.59;2079340;28;20364;-68
2022/09/21 12:22:30;;;;;;;5.82;1.45;;;;;;;22.20;39.90;97312.47;2071972;28;20655;-69
2022/09/21 12:23:48;;;;;;;4.22;1.50;;;;;;;21.56;41.04;97313.16;2073591;28;20189;-68
2022/09/21 12:24:53;;;;;;;4.90;1.30;;;;;;;21.15;41.62;97313.63;2061122;28;20221;-69
2022/09/21 12:25:57;;;;;;;6.97;1.27;;;;;;;20.54;41.97;97311.09;2071642;28;20348;-69
2022/09/21 12:27:08;;;;;;;3.45;1.15;;;;;;;20.45;43.00;97314.44;2074880;28;20204;-69
2022/09/21 12:28:21;;;;;;;4.13;1.17;;;;;;;20.26;43.08;97281.34;2072868;28;20202;-68
2022/09/21 12:29:30;;;;;;;6.03;1.15;;;;;;;21.93;40.77;97313.75;2061967;28;20205;-68
2022/09/21 12:30:34;;;;;;;2.17;1.00;;;;;;;22.62;38.78;97298.44;2072171;28;20229;-68
2022/09/21 12:32:00;;;;;;;3.28;1.00;;;;;;;21.26;39.37;97303.97;2073033;28;20323;-68
2022/09/21 12:33:17;;;;;;;3.47;1.05;;;;;;;19.52;41.48;97300.72;2071779;28;20197;-68
2022/09/21 12:34:28;;;;;;;2.50;1.10;;;;;;;19.00;43.54;97299.06;2071530;28;20323;-68
2022/09/21 12:35:52;;;;;;;3.55;1.35;;;;;;;19.42;42.46;97289.94;2072002;28;20708;-68
2022/09/21 12:43:46;;;;;;;5.43;1.25;;;;;;;21.44;40.26;97294.53;2071822;28;20527;-68
2022/09/21 12:44:54;;;;;;;2.25;0.82;;;;;;;20.91;41.49;97300.38;2065378;28;20307;-68
2022/09/21 12:46:06;;;;;;;5.75;1.35;;;;;;;19.09;42.92;97290.50;2072563;28;20201;-68
2022/09/21 12:47:13;;;;;;;3.67;1.50;;;;;;;17.74;45.88;97304.53;2073088;28;20223;-68
2022/09/21 12:48:27;;;;;;;3.95;1.05;;;;;;;18.18;45.31;97302.69;2073609;28;20213;-69
2022/09/21 12:49:31;;;;;;;72.30;43.35;;;;;;;18.90;44.80;97301.50;2065352;28;20247;-68
2022/09/21 12:50:47;;;;;;;17.27;9.40;;;;;;;20.13;42.99;97299.13;2081798;28;20328;-69
2022/09/21 12:51:54;;;;;;;5.00;1.15;;;;;;;21.11;40.96;97300.69;2077270;28;20233;-69
2022/09/21 12:53:00;;;;;;;6.60;1.00;;;;;;;21.69;38.83;97288.16;2074319;28;20732;-69
2022/09/21 12:54:27;;;;;;;4.30;1.10;;;;;;;21.21;38.48;97291.03;2073070;28;20344;-69
2022/09/21 12:55:34;;;;;;;11.50;1.20;;;;;;;20.35;40.16;97291.28;2071108;28;20292;-68
2022/09/21 12:57:05;;;;;;;5.13;1.15;;;;;;;21.18;39.19;97292.13;2073539;28;20877;-68
2022/09/21 12:58:44;;;;;;;7.28;0.82;;;;;;;20.59;40.89;97294.84;2073326;28;20205;-68
2022/09/21 12:59:59;;;;;;;6.03;1.10;;;;;;;21.52;39.08;97289.47;2066657;28;20322;-69
2022/09/21 13:01:27;;;;;;;4.30;1.10;;;;;;;22.85;36.94;97287.69;2079493;28;20950;-68
2022/09/21 13:02:48;;;;;;;3.72;1.35;;;;;;;23.34;36.47;97288.84;2073689;28;20733;-68
2022/09/21 13:04:00;;;;;;;2.85;0.82;;;;;;;23.56;36.45;97287.78;2071266;28;20221;-69
2022/09/21 13:05:05;;;;;;;4.53;0.80;;;;;;;23.76;35.89;97287.88;2064096;28;20217;-69
2022/09/21 13:06:35;;;;;;;3.75;0.95;;;;;;;22.80;36.07;97282.75;2080326;28;20323;-68
2022/09/21 13:07:52;;;;;;;8.98;1.00;;;;;;;21.87;37.34;97282.34;2072849;28;20233;-68
2022/09/21 13:08:54;;;;;;;2.95;0.77;;;;;;;23.03;36.43;97294.09;2073550;28;20900;-69
2022/09/21 13:09:56;;;;;;;2.58;1.00;;;;;;;23.67;35.36;97267.34;2071899;28;20225;-68
2022/09/21 13:11:04;;;;;;;3.17;1.00;;;;;;;24.17;34.79;97288.69;2073433;28;20232;-68
2022/09/21 13:12:20;;;;;;;1.20;0.70;;;;;;;22.41;35.67;97271.81;2073069;28;20232;-68
2022/09/21 13:25:04;;;;;;;6.20;0.70;;;;;;;22.46;38.21;97293.53;2072358;28;20708;-68
2022/09/21 13:26:12;;;;;;;2.30;0.90;;;;;;;22.98;37.79;97267.88;2072734;28;20189;-68
2022/09/21 13:27:14;;;;;;;3.42;0.85;;;;;;;23.71;37.02;97282.09;2072952;28;20251;-68
2022/09/21 13:28:23;;;;;;;1.80;0.80;;;;;;;23.67;36.80;97283.34;2073315;28;20229;-67
2022/09/21 13:29:35;;;;;;;15.45;9.25;;;;;;;24.35;36.10;97267.50;2063290;28;20194;-67
2022/09/21 13:30:45;;;;;;;41.70;25.30;;;;;;;24.68;35.20;97269.91;2081569;28;20229;-71
2022/09/21 13:31:59;;;;;;;120.10;77.95;;;;;;;24.45;35.41;97284.38;2078858;28;20289;-68
2022/09/21 13:33:02;;;;;;;95.35;59.70;;;;;;;24.24;36.03;97273.81;2064404;28;20861;-68
2022/09/21 13:34:15;;;;;;;4.40;2.85;;;;;;;23.88;36.94;97280.59;2066430;28;20305;-68
2022/09/21 13:35:55;;;;;;;2.85;1.00;;;;;;;23.29;36.55;97281.22;2056909;28;20246;-68
2022/09/21 13:37:17;;;;;;;1.48;0.75;;;;;;;23.78;36.54;97277.91;2070945;28;20666;-67
2022/09/21 13:38:33;;;;;;;3.15;0.70;;;;;;;24.41;34.89;97269.59;2072749;28;20759;-68
2022/09/21 13:39:34;;;;;;;2.90;1.00;;;;;;;24.67;33.72;97250.38;2072185;28;20198;-68
2022/09/21 13:40:36;;;;;;;1.50;0.70;;;;;;;24.65;33.70;97251.53;2072551;28;20285;-67
2022/09/21 13:41:38;;;;;;;2.95;0.80;;;;;;;24.99;34.26;97269.72;2072633;28;20202;-68
2022/09/21 13:49:50;;;;;;;2.17;0.77;;;;;;;22.55;36.35;97260.88;2065315;28;20217;-68
2022/09/21 13:50:56;;;;;;;1.75;0.70;;;;;;;22.23;36.60;97260.84;2080177;28;20260;-69
2022/09/21 13:51:59;;;;;;;1.42;0.68;;;;;;;22.86;36.24;97268.09;2077728;28;20202;-68
2022/09/21 13:53:03;;;;;;;5.70;0.77;;;;;;;23.36;35.55;97264.72;2075418;28;20232;-68
2022/09/21 13:54:05;;;;;;;5.38;1.00;;;;;;;21.31;36.80;97254.81;2072525;28;20251;-68
2022/09/21 14:01:54;;;;;;;17.50;1.30;;;;;;;19.73;39.49;97248.03;2076774;28;20189;-68
2022/09/21 14:03:02;;;;;;;13.27;1.30;;;;;;;19.92;39.41;97237.91;2071754;28;20217;-68
2022/09/21 14:04:26;;;;;;;12.00;1.20;;;;;;;20.77;37.78;97247.53;2072522;28;20825;-68
2022/09/21 14:05:41;;;;;;;13.85;1.10;;;;;;;22.50;36.72;97242.63;2074371;28;20214;-68
2022/09/21 14:06:48;;;;;;;14.32;0.90;;;;;;;22.58;36.85;97247.28;2075656;28;20296;-68
2022/09/21 14:07:59;;;;;;;4.90;0.70;;;;;;;22.58;35.46;97223.34;2074759;28;20636;-68
2022/09/21 14:09:05;;;;;;;5.07;1.08;;;;;;;22.34;35.62;97235.03;2072839;28;20281;-68
2022/09/21 14:10:08;;;;;;;2.40;0.75;;;;;;;23.29;35.25;97243.94;2072134;28;20248;-68
2022/09/21 14:11:32;;;;;;;3.25;1.00;;;;;;;23.70;34.21;97243.09;2075513;28;20658;-68
2022/09/21 14:12:43;;;;;;;8.38;0.98;;;;;;;21.80;34.23;97243.91;2074118;28;20366;-68
2022/09/21 14:13:59;;;;;;;3.60;0.80;;;;;;;21.31;37.15;97238.88;2072192;28;20704;-68
2022/09/21 14:15:28;;;;;;;3.67;0.80;;;;;;;21.22;37.22;97247.59;2067455;28;20335;-67
2022/09/21 14:16:32;;;;;;;5.20;0.90;;;;;;;20.98;36.79;97248.53;2074910;28;20260;-68
2022/09/21 14:17:38;;;;;;;7.40;1.20;;;;;;;18.01;41.04;97247.44;2074584;28;20321;-68
2022/09/21 14:18:40;;;;;;;11.80;1.38;;;;;;;17.76;43.22;97235.78;2073258;28;20233;-68
2022/09/21 14:19:41;;;;;;;11.43;1.17;;;;;;;19.18;41.28;97250.13;2065806;28;20236;-67
2022/09/21 14:21:07;;;;;;;4.65;0.70;;;;;;;20.62;38.97;97244.22;2080950;28;20204;-68
2022/09/21 14:22:09;;;;;;;1.63;0.70;;;;;;;21.04;38.31;97244.56;2075444;28;20297;-68
2022/09/21 14:23:10;;;;;;;7.00;1.38;;;;;;;20.43;37.88;97244.75;2072089;28;20201;-68
2022/09/21 14:24:18;;;;;;;2.22;0.90;;;;;;;18.68;39.97;97238.59;2072865;28;20670;-67
2022/09/21 14:25:29;;;;;;;6.60;1.48;;;;;;;20.05;38.11;97238.72;2071962;28;20325;-67
2022/09/21 14:26:35;;;;;;;1.52;0.80;;;;;;;21.36;37.10;97243.84;2072883;28;20221;-68
2022/09/21 14:27:43;;;;;;;3.85;0.90;;;;;;;22.29;36.33;97236.41;2072838;28;20216;-68
2022/09/21 14:28:50;;;;;;;1.83;1.13;;;;;;;22.69;35.36;97232.22;2072516;28;20571;-68
2022/09/21 14:30:03;;;;;;;3.65;0.70;;;;;;;23.06;35.23;97235.25;2065374;28;20225;-68
2022/09/21 14:31:17;;;;;;;2.55;0.75;;;;;;;23.37;33.50;97240.59;2075145;28;20208;-68
2022/09/21 14:32:23;;;;;;;7.13;3.45;;;;;;;23.51;33.57;97233.22;2074990;28;20205;-68
2022/09/21 14:33:32;;;;;;;10.40;1.00;;;;;;;22.15;34.62;97227.75;2075155;28;20292;-68
2022/09/21 14:34:35;;;;;;;6.03;1.33;;;;;;;22.23;34.27;97236.91;2063740;28;20245;-65
2022/09/21 14:35:41;;;;;;;5.50;1.13;;;;;;;22.31;34.41;97222.00;2081560;28;20197;-74
2022/09/21 14:36:48;;;;;;;2.47;0.80;;;;;;;23.13;33.62;97231.09;2079039;28;20371;-66
2022/09/21 14:37:59;;;;;;;4.65;0.98;;;;;;;22.07;34.52;97230.19;2074534;28;20636;-66
2022/09/21 14:39:12;;;;;;;5.18;0.95;;;;;;;20.32;36.29;97222.53;2071853;28;20657;-68
2022/09/21 14:40:22;;;;;;;7.97;1.25;;;;;;;20.04;38.39;97221.94;2071550;28;20636;-67
2022/09/21 14:41:24;;;;;;;8.15;0.90;;;;;;;20.23;37.41;97233.84;2072048;28;20210;-67
2022/09/21 14:42:27;;;;;;;9.10;1.27;;;;;;;21.13;35.94;97196.06;2072660;28;20233;-67
2022/09/21 14:43:34;;;;;;;15.85;1.23;;;;;;;21.65;34.68;97204.34;2073325;28;20200;-67
2022/09/21 14:44:37;;;;;;;2.67;0.70;;;;;;;22.61;34.62;97225.75;2062738;28;20202;-67
2022/09/21 14:46:10;;;;;;;2.85;0.80;;;;;;;22.81;33.81;97231.19;2080796;28;20347;-67
2022/09/21 14:47:29;;;;;;;1.55;0.75;;;;;;;23.17;33.47;97231.69;2074455;28;20374;-67
2022/09/21 14:48:55;;;;;;;2.15;0.80;;;;;;;23.63;33.28;97222.31;2071726;28;20197;-67
2022/09/21 14:50:06;;;;;;;4.20;0.70;;;;;;;23.97;33.27;97226.47;2066495;28;20366;-67
2022/09/21 14:51:27;;;;;;;3.60;0.90;;;;;;;24.11;32.82;97228.75;2078810;28;20749;-67
2022/09/21 14:53:17;;;;;;;3.63;0.90;;;;;;;23.95;33.52;97223.13;2072404;28;20641;-66
2022/09/21 14:54:56;;;;;;;2.45;0.70;;;;;;;24.05;33.23;97221.28;2072181;28;20201;-67
2022/09/21 14:56:22;;;;;;;1.10;0.68;;;;;;;24.05;32.86;97215.97;2075547;28;20301;-66
2022/09/21 14:57:39;;;;;;;1.55;0.75;;;;;;;24.38;33.07;97211.19;2073391;28;20288;-67
2022/09/21 14:58:46;;;;;;;2.22;0.80;;;;;;;24.29;32.47;97217.38;2072844;28;20233;-66
2022/09/21 15:00:06;;;;;;;2.22;1.10;;;;;;;24.05;32.74;97215.97;2065343;28;20891;-67
2022/09/21 15:01:24;;;;;;;1.30;0.70;;;;;;;23.80;33.71;97219.97;2072548;28;20317;-66
2022/09/21 15:02:30;;;;;;;3.00;0.90;;;;;;;23.38;33.68;97212.97;2071844;28;20624;-67
2022/09/21 15:03:59;;;;;;;4.65;1.10;;;;;;;22.45;35.18;97217.38;2071948;28;20206;-67
2022/09/21 15:05:09;;;;;;;35.03;21.40;;;;;;;21.92;35.04;97221.66;2067018;28;20679;-66
2022/09/21 15:18:14;;;;;;;4.50;1.02;;;;;;;20.15;36.38;97199.09;2073874;28;20174;-65
2022/09/21 15:19:26;;;;;;;17.05;1.40;;;;;;;19.25;37.63;97202.94;2072500;28;20288;-66
2022/09/21 15:20:30;;;;;;;7.28;1.45;;;;;;;19.82;37.31;97205.91;2073014;28;20590;-65